Relevés horaires Semmerzake (Belgique)


Relevés horaires à Semmerzake - Mercredi 02 Juin 2021
Heure UTC1 Température [°C] Vent [km/h] Hum. [%] Pres.4 [hPa] Visi. [Km] Nébu. [octa] Préc.5 [mm] Cond.
2m. Res. Ros. Dir.2 Vit. Moy. Raf.3
23:00 17.2 17.2 14.7 S 5.6 -- 11.1 85 1016(1.2/3h) 20 -- -- --
22:00 18.9 18.9 15.9 S 3.7 -- 9.3 83 1015.8(2.5/3h) 20 -- -- --
21:00 19.0 19.0 15.9 NNO 1.9 -- 22.2 82 1015.7(2.9/3h) 20 -- -- NA
20:00 20.2 20.2 15.9 SO 7.4 -- 22.2 76 1014.7(2.1/3h) 20 -- -- Il y a de la pluie faible et continue à la station au moment de l'observation
19:00 24.9 24.9 14.3 NNO 3.7 -- 7.4 52 1013.2(0.8/3h) 20 -- -- --
18:00 26.6 26.6 15.1 S 3.7 -- 11.1 49 1012.6(0.2/3h) 20 -- -- --
17:00 26.9 26.9 13.9 NNO 1.9 -- 7.4 45 1012.5(-0.1/3h) 20 -- -- --
16:00 26.8 26.8 13.0 SSE 3.7 -- 7.4 43 1012.2(-0.6/3h) 20 -- -- --
15:00 27.9 27.9 14.7 SE 3.7 -- 11.1 45 1012.2(-0.5/3h) 19 -- -- --
14:00 27.5 27.5 12.9 SE 3.7 -- 11.1 41 1012.6(-0.3/3h) 19 -- -- --
13:00 27.1 27.1 10.6 ESE 3.7 -- 11.1 36 1012.8(-0.1/3h) 20 -- -- --
12:00 26.1 26.1 8.5 ESE 3.7 -- 11.1 33 1012.8(-0.5/3h) 20 -- -- --
11:00 25.2 25.2 9.8 E 5.6 -- 11.1 38 1013(-0.4/3h) 20 -- -- --
10:00 24.5 24.5 10.2 E 5.6 -- 9.3 40 1013.1(-0.1/3h) 20 -- -- --
09:00 22.9 22.9 11.5 E 3.7 -- 7.4 49 1013.5(0.0/3h) 20 -- -- --
08:00 21.2 21.2 11.5 E 3.7 -- 7.4 54 1013.5(0.1/3h) 17 -- -- --
07:00 18.7 18.7 10.3 NNO 1.9 -- 5.6 58 1013.3(0.1/3h) 18 -- -- --
06:00 16.6 16.6 9.0 NNO 1.9 -- 7.4 61 1013.6(0.1/3h) 17 -- -- --
05:00 14.6 14.6 8.5 NNO 1.9 -- 7.4 67 1013.3(-0.1/3h) 20 -- -- --
04:00 14.2 14.2 7.8 E 5.6 -- 7.4 65 1013.3(-0.2/3h) 20 -- -- --
03:00 14.9 14.9 7.9 E 3.7 -- 7.4 63 1013.5(-0.3/3h) 20 -- -- --
02:00 14.8 14.8 8.0 E 3.7 -- 7.4 64 1013.5(-0.2/3h) 20 -- -- --
01:00 16.8 16.8 7.7 E 3.7 -- 7.4 55 1013.6(0.0/3h) 20 -- -- --
00:00 16.1 16.1 8.1 NNO 1.9 -- 9.3 59 1013.7(0.3/3h) 20 -- -- --

1 Coordinated Universal Time. Actuellement il est 13:00 locale et 11:00 UTC.

2 Le vent souffle depuis la direction indiquée vers la direction oposée.

3 Les rafales max. sont disponible 40 min après l'heure du relevé.

4 Pour les stations d'altitude (plus de 600m) le géopotentiel du niveau le plus proche de la pression obligatoire est indiqué.

5 Les stations disposant d'un diffuseur peuvent indiquer "trace". Cela signifie que des précipitations ont touchés le sol mais que la quantité est inférieure à 0.1 mm.

Récapitulatif de la journée
Température [°C] Vent [km/h] Ensoleillement4 [h] Precipitations totale5 [mm] Pression [Hpa]
Min1 Max.2 Moy.3 Max. Min Max.
13.1 28.1 0 22.2 0 h 0 min 0 1012.2 1016.0

1 Température minimale relevée entre 18:00 UTC la veille et 18:00 UTC le jour donné.

2 Température maximale relevée entre 06:00 UTC le jour donné et 06:00 UTC le lendemain.

3 Vent moyen de la journée basé sur les relevés horaires.

4 Ensoleillement en heures relevé entre 06:00 UTC la veille et 06:00 UTC le jour donné.

5 Précipitations totales tombées entre 06:00 UTC la jour donné et 06:00 UTC le lendemain.

Graphiques horaires